sensor_id;sensor_type;location;lat;lon;timestamp;P1;durP1;ratioP1;P2;durP2;ratioP2
1402;SDS011;696;48.546;9.896;2023-04-25T00:00:17;5.75;;;2.00;;
1402;SDS011;696;48.546;9.896;2023-04-25T00:02:43;2.10;;;1.70;;
1402;SDS011;696;48.546;9.896;2023-04-25T00:05:08;3.28;;;1.83;;
1402;SDS011;696;48.546;9.896;2023-04-25T00:07:34;1.98;;;1.50;;
1402;SDS011;696;48.546;9.896;2023-04-25T00:09:59;4.03;;;1.83;;
1402;SDS011;696;48.546;9.896;2023-04-25T00:12:25;2.20;;;2.00;;
1402;SDS011;696;48.546;9.896;2023-04-25T00:14:53;1.70;;;1.60;;
1402;SDS011;696;48.546;9.896;2023-04-25T00:17:18;2.00;;;1.75;;
1402;SDS011;696;48.546;9.896;2023-04-25T00:19:44;2.72;;;2.03;;
1402;SDS011;696;48.546;9.896;2023-04-25T00:22:11;3.80;;;2.05;;
1402;SDS011;696;48.546;9.896;2023-04-25T00:24:37;2.00;;;1.80;;
1402;SDS011;696;48.546;9.896;2023-04-25T00:27:02;2.33;;;1.67;;
1402;SDS011;696;48.546;9.896;2023-04-25T00:29:28;2.50;;;1.98;;
1402;SDS011;696;48.546;9.896;2023-04-25T00:31:53;4.20;;;2.03;;
1402;SDS011;696;48.546;9.896;2023-04-25T00:34:18;3.45;;;1.65;;
1402;SDS011;696;48.546;9.896;2023-04-25T00:36:43;4.00;;;2.40;;
1402;SDS011;696;48.546;9.896;2023-04-25T00:39:09;1.98;;;1.60;;
1402;SDS011;696;48.546;9.896;2023-04-25T00:41:35;3.17;;;2.35;;
1402;SDS011;696;48.546;9.896;2023-04-25T00:44:01;2.53;;;2.17;;
1402;SDS011;696;48.546;9.896;2023-04-25T00:46:27;2.63;;;2.15;;
1402;SDS011;696;48.546;9.896;2023-04-25T00:48:53;5.30;;;3.17;;
1402;SDS011;696;48.546;9.896;2023-04-25T00:51:19;3.03;;;2.42;;
1402;SDS011;696;48.546;9.896;2023-04-25T00:53:45;3.63;;;2.25;;
1402;SDS011;696;48.546;9.896;2023-04-25T00:56:11;2.03;;;1.85;;
1402;SDS011;696;48.546;9.896;2023-04-25T00:58:37;2.33;;;2.03;;
1402;SDS011;696;48.546;9.896;2023-04-25T01:01:03;3.67;;;2.47;;
1402;SDS011;696;48.546;9.896;2023-04-25T01:03:28;2.60;;;2.08;;
1402;SDS011;696;48.546;9.896;2023-04-25T01:05:56;2.67;;;2.13;;
1402;SDS011;696;48.546;9.896;2023-04-25T01:08:23;2.55;;;2.03;;
1402;SDS011;696;48.546;9.896;2023-04-25T01:10:50;2.83;;;2.28;;
1402;SDS011;696;48.546;9.896;2023-04-25T01:13:15;6.10;;;2.10;;
1402;SDS011;696;48.546;9.896;2023-04-25T01:15:41;2.72;;;1.98;;
1402;SDS011;696;48.546;9.896;2023-04-25T01:18:06;3.70;;;1.95;;
1402;SDS011;696;48.546;9.896;2023-04-25T01:20:32;3.22;;;2.20;;
1402;SDS011;696;48.546;9.896;2023-04-25T01:22:58;2.13;;;1.92;;
1402;SDS011;696;48.546;9.896;2023-04-25T01:25:24;3.90;;;2.30;;
1402;SDS011;696;48.546;9.896;2023-04-25T01:27:49;2.95;;;2.13;;
1402;SDS011;696;48.546;9.896;2023-04-25T01:30:15;6.63;;;3.38;;
1402;SDS011;696;48.546;9.896;2023-04-25T01:32:41;16.58;;;5.13;;
1402;SDS011;696;48.546;9.896;2023-04-25T01:35:07;12.57;;;4.93;;
1402;SDS011;696;48.546;9.896;2023-04-25T01:37:38;23.42;;;6.00;;
1402;SDS011;696;48.546;9.896;2023-04-25T01:40:08;10.52;;;4.65;;
1402;SDS011;696;48.546;9.896;2023-04-25T01:42:35;9.02;;;3.90;;
1402;SDS011;696;48.546;9.896;2023-04-25T01:45:01;5.65;;;3.55;;
1402;SDS011;696;48.546;9.896;2023-04-25T01:47:27;7.90;;;3.47;;
1402;SDS011;696;48.546;9.896;2023-04-25T01:49:52;4.00;;;2.50;;
1402;SDS011;696;48.546;9.896;2023-04-25T01:52:17;6.30;;;2.60;;
1402;SDS011;696;48.546;9.896;2023-04-25T01:54:43;5.85;;;2.78;;
1402;SDS011;696;48.546;9.896;2023-04-25T01:57:12;3.20;;;2.65;;
1402;SDS011;696;48.546;9.896;2023-04-25T01:59:38;3.22;;;2.15;;
1402;SDS011;696;48.546;9.896;2023-04-25T02:02:04;3.90;;;2.45;;
1402;SDS011;696;48.546;9.896;2023-04-25T02:04:29;4.47;;;2.50;;
1402;SDS011;696;48.546;9.896;2023-04-25T02:06:55;10.23;;;2.30;;
1402;SDS011;696;48.546;9.896;2023-04-25T02:09:20;5.03;;;2.15;;
1402;SDS011;696;48.546;9.896;2023-04-25T02:11:46;2.47;;;1.98;;
1402;SDS011;696;48.546;9.896;2023-04-25T02:14:11;3.50;;;2.08;;
1402;SDS011;696;48.546;9.896;2023-04-25T02:16:37;2.60;;;2.05;;
1402;SDS011;696;48.546;9.896;2023-04-25T02:19:03;2.72;;;1.92;;
1402;SDS011;696;48.546;9.896;2023-04-25T02:21:28;6.80;;;2.35;;
1402;SDS011;696;48.546;9.896;2023-04-25T02:23:55;3.67;;;2.35;;
1402;SDS011;696;48.546;9.896;2023-04-25T02:26:20;4.10;;;2.67;;
1402;SDS011;696;48.546;9.896;2023-04-25T02:28:46;3.53;;;2.30;;
1402;SDS011;696;48.546;9.896;2023-04-25T02:31:11;2.88;;;2.10;;
1402;SDS011;696;48.546;9.896;2023-04-25T02:33:36;2.88;;;2.10;;
1402;SDS011;696;48.546;9.896;2023-04-25T02:36:02;4.40;;;2.42;;
1402;SDS011;696;48.546;9.896;2023-04-25T02:38:28;2.30;;;2.10;;
1402;SDS011;696;48.546;9.896;2023-04-25T02:40:53;3.55;;;2.10;;
1402;SDS011;696;48.546;9.896;2023-04-25T02:43:18;7.07;;;2.60;;
1402;SDS011;696;48.546;9.896;2023-04-25T02:45:45;3.15;;;2.10;;
1402;SDS011;696;48.546;9.896;2023-04-25T02:48:10;3.08;;;2.38;;
1402;SDS011;696;48.546;9.896;2023-04-25T02:50:36;8.50;;;2.60;;
1402;SDS011;696;48.546;9.896;2023-04-25T02:53:01;3.00;;;2.30;;
1402;SDS011;696;48.546;9.896;2023-04-25T02:55:26;3.70;;;2.30;;
1402;SDS011;696;48.546;9.896;2023-04-25T02:57:52;6.65;;;2.67;;
1402;SDS011;696;48.546;9.896;2023-04-25T03:00:17;4.05;;;2.63;;
1402;SDS011;696;48.546;9.896;2023-04-25T03:02:42;2.03;;;1.70;;
1402;SDS011;696;48.546;9.896;2023-04-25T03:05:08;4.93;;;2.45;;
1402;SDS011;696;48.546;9.896;2023-04-25T03:07:33;4.85;;;2.45;;
1402;SDS011;696;48.546;9.896;2023-04-25T03:09:59;4.03;;;2.15;;
1402;SDS011;696;48.546;9.896;2023-04-25T03:12:24;2.40;;;2.20;;
1402;SDS011;696;48.546;9.896;2023-04-25T03:14:50;6.45;;;2.53;;
1402;SDS011;696;48.546;9.896;2023-04-25T03:17:15;4.05;;;2.60;;
1402;SDS011;696;48.546;9.896;2023-04-25T03:19:41;3.40;;;2.33;;
1402;SDS011;696;48.546;9.896;2023-04-25T03:22:06;3.67;;;2.22;;
1402;SDS011;696;48.546;9.896;2023-04-25T03:24:31;5.45;;;2.50;;
1402;SDS011;696;48.546;9.896;2023-04-25T03:26:57;3.13;;;2.25;;
1402;SDS011;696;48.546;9.896;2023-04-25T03:29:22;3.10;;;2.28;;
1402;SDS011;696;48.546;9.896;2023-04-25T03:31:50;3.70;;;2.28;;
1402;SDS011;696;48.546;9.896;2023-04-25T03:34:15;3.40;;;2.28;;
1402;SDS011;696;48.546;9.896;2023-04-25T03:36:41;3.58;;;2.20;;
1402;SDS011;696;48.546;9.896;2023-04-25T03:39:06;10.00;;;2.42;;
1402;SDS011;696;48.546;9.896;2023-04-25T03:41:31;6.78;;;2.88;;
1402;SDS011;696;48.546;9.896;2023-04-25T03:43:57;2.60;;;2.20;;
1402;SDS011;696;48.546;9.896;2023-04-25T03:46:22;4.45;;;2.92;;
1402;SDS011;696;48.546;9.896;2023-04-25T03:48:47;3.90;;;2.80;;
1402;SDS011;696;48.546;9.896;2023-04-25T03:51:13;4.13;;;2.90;;
1402;SDS011;696;48.546;9.896;2023-04-25T03:53:38;2.35;;;2.15;;
1402;SDS011;696;48.546;9.896;2023-04-25T03:56:04;7.80;;;2.50;;
1402;SDS011;696;48.546;9.896;2023-04-25T03:58:29;5.82;;;2.63;;
1402;SDS011;696;48.546;9.896;2023-04-25T04:00:55;2.95;;;2.35;;
1402;SDS011;696;48.546;9.896;2023-04-25T04:03:20;3.15;;;2.45;;
1402;SDS011;696;48.546;9.896;2023-04-25T04:05:45;3.47;;;2.30;;
1402;SDS011;696;48.546;9.896;2023-04-25T04:08:11;8.45;;;3.35;;
1402;SDS011;696;48.546;9.896;2023-04-25T04:10:36;4.90;;;3.25;;
1402;SDS011;696;48.546;9.896;2023-04-25T04:13:02;4.97;;;3.22;;
1402;SDS011;696;48.546;9.896;2023-04-25T04:15:29;5.40;;;2.92;;
1402;SDS011;696;48.546;9.896;2023-04-25T04:17:54;7.43;;;3.10;;
1402;SDS011;696;48.546;9.896;2023-04-25T04:20:20;3.10;;;2.40;;
1402;SDS011;696;48.546;9.896;2023-04-25T04:22:45;5.43;;;2.75;;
1402;SDS011;696;48.546;9.896;2023-04-25T04:25:11;3.67;;;2.28;;
1402;SDS011;696;48.546;9.896;2023-04-25T04:27:37;4.70;;;2.22;;
1402;SDS011;696;48.546;9.896;2023-04-25T04:30:02;3.60;;;2.58;;
1402;SDS011;696;48.546;9.896;2023-04-25T04:32:28;3.17;;;2.40;;
1402;SDS011;696;48.546;9.896;2023-04-25T04:34:55;4.80;;;2.63;;
1402;SDS011;696;48.546;9.896;2023-04-25T04:37:20;6.55;;;3.15;;
1402;SDS011;696;48.546;9.896;2023-04-25T04:39:46;3.67;;;2.55;;
1402;SDS011;696;48.546;9.896;2023-04-25T04:42:12;3.10;;;2.15;;
1402;SDS011;696;48.546;9.896;2023-04-25T04:44:38;4.07;;;2.60;;
1402;SDS011;696;48.546;9.896;2023-04-25T04:47:04;4.35;;;2.58;;
1402;SDS011;696;48.546;9.896;2023-04-25T04:49:31;4.00;;;2.28;;
1402;SDS011;696;48.546;9.896;2023-04-25T04:51:57;7.35;;;2.70;;
1402;SDS011;696;48.546;9.896;2023-04-25T04:54:22;4.25;;;2.60;;
1402;SDS011;696;48.546;9.896;2023-04-25T04:56:47;4.35;;;2.65;;
1402;SDS011;696;48.546;9.896;2023-04-25T04:59:13;3.85;;;2.50;;
1402;SDS011;696;48.546;9.896;2023-04-25T05:01:38;5.47;;;2.50;;
1402;SDS011;696;48.546;9.896;2023-04-25T05:04:03;8.45;;;2.50;;
1402;SDS011;696;48.546;9.896;2023-04-25T05:06:29;5.15;;;2.90;;
1402;SDS011;696;48.546;9.896;2023-04-25T05:08:55;5.40;;;2.55;;
1402;SDS011;696;48.546;9.896;2023-04-25T05:11:22;8.10;;;2.30;;
1402;SDS011;696;48.546;9.896;2023-04-25T05:13:48;5.50;;;2.35;;
1402;SDS011;696;48.546;9.896;2023-04-25T05:16:14;3.42;;;2.03;;
1402;SDS011;696;48.546;9.896;2023-04-25T05:18:39;5.32;;;3.33;;
1402;SDS011;696;48.546;9.896;2023-04-25T05:21:05;7.78;;;3.33;;
1402;SDS011;696;48.546;9.896;2023-04-25T05:23:31;6.55;;;3.15;;
1402;SDS011;696;48.546;9.896;2023-04-25T05:25:57;3.28;;;2.50;;
1402;SDS011;696;48.546;9.896;2023-04-25T05:28:22;5.22;;;3.00;;
1402;SDS011;696;48.546;9.896;2023-04-25T05:30:48;3.40;;;2.67;;
1402;SDS011;696;48.546;9.896;2023-04-25T05:33:13;4.40;;;2.67;;
1402;SDS011;696;48.546;9.896;2023-04-25T05:35:39;5.07;;;2.45;;
1402;SDS011;696;48.546;9.896;2023-04-25T05:38:05;3.75;;;2.63;;
1402;SDS011;696;48.546;9.896;2023-04-25T05:40:30;3.90;;;2.35;;
1402;SDS011;696;48.546;9.896;2023-04-25T05:42:55;3.85;;;2.30;;
1402;SDS011;696;48.546;9.896;2023-04-25T05:45:21;6.43;;;2.20;;
1402;SDS011;696;48.546;9.896;2023-04-25T05:47:46;3.67;;;2.33;;
1402;SDS011;696;48.546;9.896;2023-04-25T05:50:11;2.47;;;2.03;;
1402;SDS011;696;48.546;9.896;2023-04-25T05:52:37;4.47;;;2.53;;
1402;SDS011;696;48.546;9.896;2023-04-25T05:55:02;3.85;;;2.30;;
1402;SDS011;696;48.546;9.896;2023-04-25T05:57:27;2.42;;;1.85;;
1402;SDS011;696;48.546;9.896;2023-04-25T05:59:53;4.15;;;2.58;;
1402;SDS011;696;48.546;9.896;2023-04-25T06:02:19;7.55;;;2.65;;
1402;SDS011;696;48.546;9.896;2023-04-25T06:04:45;2.45;;;2.08;;
1402;SDS011;696;48.546;9.896;2023-04-25T06:07:11;12.88;;;2.72;;
1402;SDS011;696;48.546;9.896;2023-04-25T06:09:36;5.22;;;2.35;;
1402;SDS011;696;48.546;9.896;2023-04-25T06:12:04;2.70;;;1.75;;
1402;SDS011;696;48.546;9.896;2023-04-25T06:14:29;2.90;;;1.98;;
1402;SDS011;696;48.546;9.896;2023-04-25T06:16:55;2.17;;;1.98;;
1402;SDS011;696;48.546;9.896;2023-04-25T06:19:20;2.47;;;1.83;;
1402;SDS011;696;48.546;9.896;2023-04-25T06:21:46;2.60;;;1.80;;
1402;SDS011;696;48.546;9.896;2023-04-25T06:24:11;3.45;;;2.17;;
1402;SDS011;696;48.546;9.896;2023-04-25T06:26:36;3.67;;;1.77;;
1402;SDS011;696;48.546;9.896;2023-04-25T06:29:02;2.28;;;1.98;;
1402;SDS011;696;48.546;9.896;2023-04-25T06:31:27;10.40;;;2.17;;
1402;SDS011;696;48.546;9.896;2023-04-25T06:33:53;3.38;;;2.28;;
1402;SDS011;696;48.546;9.896;2023-04-25T06:36:20;4.18;;;2.00;;
1402;SDS011;696;48.546;9.896;2023-04-25T06:38:50;4.50;;;2.38;;
1402;SDS011;696;48.546;9.896;2023-04-25T06:41:15;3.97;;;2.03;;
1402;SDS011;696;48.546;9.896;2023-04-25T06:43:41;5.85;;;2.47;;
1402;SDS011;696;48.546;9.896;2023-04-25T06:46:06;2.80;;;2.00;;
1402;SDS011;696;48.546;9.896;2023-04-25T06:48:31;1.88;;;1.73;;
1402;SDS011;696;48.546;9.896;2023-04-25T06:50:57;3.13;;;2.13;;
1402;SDS011;696;48.546;9.896;2023-04-25T06:53:22;3.55;;;2.22;;
1402;SDS011;696;48.546;9.896;2023-04-25T06:55:47;3.45;;;2.15;;
1402;SDS011;696;48.546;9.896;2023-04-25T06:58:13;4.18;;;2.13;;
1402;SDS011;696;48.546;9.896;2023-04-25T07:00:38;5.82;;;2.42;;
1402;SDS011;696;48.546;9.896;2023-04-25T07:03:03;6.75;;;2.33;;
1402;SDS011;696;48.546;9.896;2023-04-25T07:05:29;4.13;;;2.40;;
1402;SDS011;696;48.546;9.896;2023-04-25T07:07:54;6.55;;;2.20;;
1402;SDS011;696;48.546;9.896;2023-04-25T07:10:19;4.45;;;2.45;;
1402;SDS011;696;48.546;9.896;2023-04-25T07:12:46;8.60;;;2.00;;
1402;SDS011;696;48.546;9.896;2023-04-25T07:15:11;2.38;;;1.52;;
1402;SDS011;696;48.546;9.896;2023-04-25T07:17:37;4.95;;;1.90;;
1402;SDS011;696;48.546;9.896;2023-04-25T07:20:03;2.60;;;1.38;;
1402;SDS011;696;48.546;9.896;2023-04-25T07:22:29;7.72;;;1.95;;
1402;SDS011;696;48.546;9.896;2023-04-25T07:24:54;3.20;;;1.85;;
1402;SDS011;696;48.546;9.896;2023-04-25T07:27:20;3.60;;;2.15;;
1402;SDS011;696;48.546;9.896;2023-04-25T07:29:45;3.42;;;1.98;;
1402;SDS011;696;48.546;9.896;2023-04-25T07:32:11;2.78;;;1.77;;
1402;SDS011;696;48.546;9.896;2023-04-25T07:34:38;3.35;;;1.77;;
1402;SDS011;696;48.546;9.896;2023-04-25T07:37:04;3.10;;;2.25;;
1402;SDS011;696;48.546;9.896;2023-04-25T07:39:30;2.30;;;1.63;;
1402;SDS011;696;48.546;9.896;2023-04-25T07:41:55;4.55;;;1.88;;
1402;SDS011;696;48.546;9.896;2023-04-25T07:44:23;4.15;;;2.22;;
1402;SDS011;696;48.546;9.896;2023-04-25T07:46:48;6.78;;;3.30;;
1402;SDS011;696;48.546;9.896;2023-04-25T07:49:14;4.43;;;2.35;;
1402;SDS011;696;48.546;9.896;2023-04-25T07:51:40;2.88;;;2.00;;
1402;SDS011;696;48.546;9.896;2023-04-25T07:54:06;2.15;;;1.80;;
1402;SDS011;696;48.546;9.896;2023-04-25T07:56:31;2.00;;;1.80;;
1402;SDS011;696;48.546;9.896;2023-04-25T07:58:57;4.75;;;1.80;;
1402;SDS011;696;48.546;9.896;2023-04-25T08:01:23;1.85;;;1.73;;
1402;SDS011;696;48.546;9.896;2023-04-25T08:03:48;2.20;;;1.75;;
1402;SDS011;696;48.546;9.896;2023-04-25T08:06:14;4.22;;;2.10;;
1402;SDS011;696;48.546;9.896;2023-04-25T08:08:40;2.38;;;1.95;;
1402;SDS011;696;48.546;9.896;2023-04-25T08:11:05;4.18;;;2.53;;
1402;SDS011;696;48.546;9.896;2023-04-25T08:13:30;2.35;;;1.80;;
1402;SDS011;696;48.546;9.896;2023-04-25T08:15:56;5.15;;;2.40;;
1402;SDS011;696;48.546;9.896;2023-04-25T08:18:21;2.92;;;2.20;;
1402;SDS011;696;48.546;9.896;2023-04-25T08:20:46;3.47;;;2.20;;
1402;SDS011;696;48.546;9.896;2023-04-25T08:23:12;5.03;;;2.60;;
1402;SDS011;696;48.546;9.896;2023-04-25T08:25:38;3.90;;;2.35;;
1402;SDS011;696;48.546;9.896;2023-04-25T08:28:03;6.95;;;2.15;;
1402;SDS011;696;48.546;9.896;2023-04-25T08:30:29;6.50;;;2.40;;
1402;SDS011;696;48.546;9.896;2023-04-25T08:32:54;4.10;;;2.50;;
1402;SDS011;696;48.546;9.896;2023-04-25T08:35:20;3.70;;;2.70;;
1402;SDS011;696;48.546;9.896;2023-04-25T08:37:45;2.85;;;2.35;;
1402;SDS011;696;48.546;9.896;2023-04-25T08:40:14;3.13;;;2.17;;
1402;SDS011;696;48.546;9.896;2023-04-25T08:42:43;6.75;;;2.15;;
1402;SDS011;696;48.546;9.896;2023-04-25T08:45:09;3.80;;;2.15;;
1402;SDS011;696;48.546;9.896;2023-04-25T08:47:35;3.65;;;2.38;;
1402;SDS011;696;48.546;9.896;2023-04-25T08:50:03;3.78;;;2.20;;
1402;SDS011;696;48.546;9.896;2023-04-25T08:52:32;3.83;;;2.38;;
1402;SDS011;696;48.546;9.896;2023-04-25T08:55:00;2.72;;;2.08;;
1402;SDS011;696;48.546;9.896;2023-04-25T08:57:26;3.28;;;2.40;;
1402;SDS011;696;48.546;9.896;2023-04-25T08:59:52;3.08;;;2.35;;
1402;SDS011;696;48.546;9.896;2023-04-25T09:02:18;3.10;;;2.03;;
1402;SDS011;696;48.546;9.896;2023-04-25T09:04:45;4.28;;;2.38;;
1402;SDS011;696;48.546;9.896;2023-04-25T09:07:11;12.60;;;2.65;;
1402;SDS011;696;48.546;9.896;2023-04-25T09:09:36;2.90;;;2.58;;
1402;SDS011;696;48.546;9.896;2023-04-25T09:12:02;4.00;;;3.00;;
1402;SDS011;696;48.546;9.896;2023-04-25T09:14:27;4.97;;;2.97;;
1402;SDS011;696;48.546;9.896;2023-04-25T09:19:39;4.85;;;3.30;;
1402;SDS011;696;48.546;9.896;2023-04-25T09:22:05;8.07;;;3.40;;
1402;SDS011;696;48.546;9.896;2023-04-25T09:24:41;6.13;;;3.83;;
1402;SDS011;696;48.546;9.896;2023-04-25T09:27:13;4.47;;;3.50;;
1402;SDS011;696;48.546;9.896;2023-04-25T09:29:43;7.03;;;3.63;;
1402;SDS011;696;48.546;9.896;2023-04-25T09:34:40;3.67;;;2.75;;
1402;SDS011;696;48.546;9.896;2023-04-25T09:37:10;4.97;;;3.45;;
1402;SDS011;696;48.546;9.896;2023-04-25T09:39:36;3.97;;;3.42;;
1402;SDS011;696;48.546;9.896;2023-04-25T09:42:03;4.82;;;3.78;;
1402;SDS011;696;48.546;9.896;2023-04-25T09:44:29;7.70;;;4.03;;
1402;SDS011;696;48.546;9.896;2023-04-25T09:46:54;7.65;;;3.92;;
1402;SDS011;696;48.546;9.896;2023-04-25T09:49:20;7.28;;;3.55;;
1402;SDS011;696;48.546;9.896;2023-04-25T09:51:58;5.00;;;3.90;;
1402;SDS011;696;48.546;9.896;2023-04-25T09:54:24;6.82;;;3.50;;
1402;SDS011;696;48.546;9.896;2023-04-25T09:56:51;3.78;;;3.22;;
1402;SDS011;696;48.546;9.896;2023-04-25T09:59:21;4.30;;;3.10;;
1402;SDS011;696;48.546;9.896;2023-04-25T10:01:49;3.67;;;2.90;;
1402;SDS011;696;48.546;9.896;2023-04-25T10:04:23;5.80;;;3.70;;
1402;SDS011;696;48.546;9.896;2023-04-25T10:06:51;3.15;;;2.72;;
1402;SDS011;696;48.546;9.896;2023-04-25T10:09:19;4.18;;;3.03;;
1402;SDS011;696;48.546;9.896;2023-04-25T10:11:45;4.40;;;3.20;;
1402;SDS011;696;48.546;9.896;2023-04-25T10:14:13;3.15;;;2.78;;
1402;SDS011;696;48.546;9.896;2023-04-25T10:16:39;4.95;;;3.45;;
1402;SDS011;696;48.546;9.896;2023-04-25T10:19:05;5.25;;;3.28;;
1402;SDS011;696;48.546;9.896;2023-04-25T10:21:31;2.97;;;2.63;;
1402;SDS011;696;48.546;9.896;2023-04-25T10:23:56;4.35;;;2.70;;
1402;SDS011;696;48.546;9.896;2023-04-25T10:26:22;3.83;;;2.90;;
1402;SDS011;696;48.546;9.896;2023-04-25T10:28:55;3.90;;;2.53;;
1402;SDS011;696;48.546;9.896;2023-04-25T10:31:20;3.17;;;2.40;;
1402;SDS011;696;48.546;9.896;2023-04-25T10:33:45;5.45;;;2.47;;
1402;SDS011;696;48.546;9.896;2023-04-25T10:38:37;2.63;;;2.08;;
1402;SDS011;696;48.546;9.896;2023-04-25T10:41:05;3.53;;;2.35;;
1402;SDS011;696;48.546;9.896;2023-04-25T10:46:03;2.67;;;2.17;;
1402;SDS011;696;48.546;9.896;2023-04-25T10:48:59;3.50;;;2.20;;
1402;SDS011;696;48.546;9.896;2023-04-25T10:54:12;3.47;;;2.90;;
1402;SDS011;696;48.546;9.896;2023-04-25T10:56:38;3.63;;;2.70;;
1402;SDS011;696;48.546;9.896;2023-04-25T10:59:18;3.15;;;2.35;;
1402;SDS011;696;48.546;9.896;2023-04-25T11:01:48;2.83;;;2.30;;
1402;SDS011;696;48.546;9.896;2023-04-25T11:04:37;3.88;;;3.03;;
1402;SDS011;696;48.546;9.896;2023-04-25T11:10:02;3.70;;;2.92;;
1402;SDS011;696;48.546;9.896;2023-04-25T11:12:29;6.00;;;3.50;;
1402;SDS011;696;48.546;9.896;2023-04-25T11:15:00;4.57;;;3.40;;
1402;SDS011;696;48.546;9.896;2023-04-25T11:17:26;5.38;;;2.97;;
1402;SDS011;696;48.546;9.896;2023-04-25T11:19:51;6.53;;;3.33;;
1402;SDS011;696;48.546;9.896;2023-04-25T11:22:17;4.90;;;3.22;;
1402;SDS011;696;48.546;9.896;2023-04-25T11:24:42;3.28;;;2.97;;
1402;SDS011;696;48.546;9.896;2023-04-25T11:27:08;3.60;;;2.83;;
1402;SDS011;696;48.546;9.896;2023-04-25T11:29:34;3.00;;;2.65;;
1402;SDS011;696;48.546;9.896;2023-04-25T11:32:00;5.38;;;2.95;;
1402;SDS011;696;48.546;9.896;2023-04-25T11:34:26;4.72;;;2.88;;
1402;SDS011;696;48.546;9.896;2023-04-25T11:36:52;4.75;;;3.05;;
1402;SDS011;696;48.546;9.896;2023-04-25T11:39:18;3.42;;;2.70;;
1402;SDS011;696;48.546;9.896;2023-04-25T11:41:44;2.28;;;2.08;;
1402;SDS011;696;48.546;9.896;2023-04-25T11:44:10;3.10;;;2.45;;
1402;SDS011;696;48.546;9.896;2023-04-25T11:46:35;2.40;;;2.15;;
1402;SDS011;696;48.546;9.896;2023-04-25T11:49:00;3.72;;;2.10;;
1402;SDS011;696;48.546;9.896;2023-04-25T11:51:26;2.40;;;2.08;;
1402;SDS011;696;48.546;9.896;2023-04-25T11:53:52;4.10;;;2.72;;
1402;SDS011;696;48.546;9.896;2023-04-25T11:56:17;3.47;;;3.03;;
1402;SDS011;696;48.546;9.896;2023-04-25T11:58:58;3.80;;;3.10;;
1402;SDS011;696;48.546;9.896;2023-04-25T12:01:31;3.45;;;2.72;;
1402;SDS011;696;48.546;9.896;2023-04-25T12:06:44;2.67;;;2.22;;
1402;SDS011;696;48.546;9.896;2023-04-25T12:09:14;2.65;;;2.20;;
1402;SDS011;696;48.546;9.896;2023-04-25T12:11:41;2.10;;;1.90;;
1402;SDS011;696;48.546;9.896;2023-04-25T12:14:11;2.70;;;2.17;;
1402;SDS011;696;48.546;9.896;2023-04-25T12:16:43;2.78;;;2.08;;
1402;SDS011;696;48.546;9.896;2023-04-25T12:19:10;1.70;;;1.60;;
1402;SDS011;696;48.546;9.896;2023-04-25T12:21:39;1.58;;;1.42;;
1402;SDS011;696;48.546;9.896;2023-04-25T12:26:45;1.25;;;1.15;;
1402;SDS011;696;48.546;9.896;2023-04-25T12:29:15;6.20;;;2.55;;
1402;SDS011;696;48.546;9.896;2023-04-25T12:31:44;3.88;;;1.63;;
1402;SDS011;696;48.546;9.896;2023-04-25T12:34:10;1.75;;;1.65;;
1402;SDS011;696;48.546;9.896;2023-04-25T12:36:35;1.80;;;1.70;;
1402;SDS011;696;48.546;9.896;2023-04-25T12:39:01;2.10;;;1.42;;
1402;SDS011;696;48.546;9.896;2023-04-25T12:41:29;1.45;;;1.35;;
1402;SDS011;696;48.546;9.896;2023-04-25T12:43:55;1.55;;;1.38;;
1402;SDS011;696;48.546;9.896;2023-04-25T12:46:21;2.60;;;1.83;;
1402;SDS011;696;48.546;9.896;2023-04-25T12:48:47;1.50;;;1.40;;
1402;SDS011;696;48.546;9.896;2023-04-25T12:51:13;1.90;;;1.45;;
1402;SDS011;696;48.546;9.896;2023-04-25T12:53:38;2.05;;;1.65;;
1402;SDS011;696;48.546;9.896;2023-04-25T12:56:05;2.10;;;1.65;;
1402;SDS011;696;48.546;9.896;2023-04-25T12:58:32;2.53;;;2.17;;
1402;SDS011;696;48.546;9.896;2023-04-25T13:00:58;5.13;;;2.00;;
1402;SDS011;696;48.546;9.896;2023-04-25T13:03:23;2.45;;;2.10;;
1402;SDS011;696;48.546;9.896;2023-04-25T13:05:49;5.38;;;2.20;;
1402;SDS011;696;48.546;9.896;2023-04-25T13:08:15;2.50;;;1.85;;
1402;SDS011;696;48.546;9.896;2023-04-25T13:10:41;4.45;;;2.03;;
1402;SDS011;696;48.546;9.896;2023-04-25T13:13:06;2.72;;;1.77;;
1402;SDS011;696;48.546;9.896;2023-04-25T13:15:32;4.43;;;2.25;;
1402;SDS011;696;48.546;9.896;2023-04-25T13:17:57;3.22;;;2.13;;
1402;SDS011;696;48.546;9.896;2023-04-25T13:20:22;2.83;;;2.03;;
1402;SDS011;696;48.546;9.896;2023-04-25T13:22:48;4.03;;;2.60;;
1402;SDS011;696;48.546;9.896;2023-04-25T13:25:13;2.33;;;2.13;;
1402;SDS011;696;48.546;9.896;2023-04-25T13:27:39;3.25;;;2.30;;
1402;SDS011;696;48.546;9.896;2023-04-25T13:30:05;4.53;;;1.60;;
1402;SDS011;696;48.546;9.896;2023-04-25T13:32:34;3.17;;;1.48;;
1402;SDS011;696;48.546;9.896;2023-04-25T13:35:03;2.10;;;1.70;;
1402;SDS011;696;48.546;9.896;2023-04-25T13:37:30;2.25;;;2.00;;
1402;SDS011;696;48.546;9.896;2023-04-25T13:39:57;2.38;;;1.48;;
1402;SDS011;696;48.546;9.896;2023-04-25T13:42:23;3.10;;;1.65;;
1402;SDS011;696;48.546;9.896;2023-04-25T13:44:49;1.98;;;1.40;;
1402;SDS011;696;48.546;9.896;2023-04-25T13:47:14;2.78;;;1.63;;
1402;SDS011;696;48.546;9.896;2023-04-25T13:49:40;3.15;;;1.83;;
1402;SDS011;696;48.546;9.896;2023-04-25T13:52:05;3.53;;;1.73;;
1402;SDS011;696;48.546;9.896;2023-04-25T13:54:31;7.82;;;2.28;;
1402;SDS011;696;48.546;9.896;2023-04-25T13:56:56;2.47;;;1.55;;
1402;SDS011;696;48.546;9.896;2023-04-25T13:59:23;2.47;;;1.38;;
1402;SDS011;696;48.546;9.896;2023-04-25T14:01:50;2.13;;;1.63;;
1402;SDS011;696;48.546;9.896;2023-04-25T14:04:16;2.65;;;1.30;;
1402;SDS011;696;48.546;9.896;2023-04-25T14:06:41;2.05;;;1.40;;
1402;SDS011;696;48.546;9.896;2023-04-25T14:09:06;2.17;;;1.60;;
1402;SDS011;696;48.546;9.896;2023-04-25T14:11:35;1.35;;;1.25;;
1402;SDS011;696;48.546;9.896;2023-04-25T14:14:01;2.67;;;2.05;;
1402;SDS011;696;48.546;9.896;2023-04-25T14:16:27;4.15;;;2.10;;
1402;SDS011;696;48.546;9.896;2023-04-25T14:18:52;3.20;;;2.03;;
1402;SDS011;696;48.546;9.896;2023-04-25T14:21:19;7.47;;;2.88;;
1402;SDS011;696;48.546;9.896;2023-04-25T14:23:45;6.00;;;2.33;;
1402;SDS011;696;48.546;9.896;2023-04-25T14:26:11;2.95;;;1.60;;
1402;SDS011;696;48.546;9.896;2023-04-25T14:28:37;2.38;;;2.03;;
1402;SDS011;696;48.546;9.896;2023-04-25T14:31:03;1.85;;;1.60;;
1402;SDS011;696;48.546;9.896;2023-04-25T14:33:28;4.93;;;2.60;;
1402;SDS011;696;48.546;9.896;2023-04-25T14:35:54;7.28;;;2.30;;
1402;SDS011;696;48.546;9.896;2023-04-25T14:38:20;9.93;;;2.13;;
1402;SDS011;696;48.546;9.896;2023-04-25T14:40:48;2.53;;;2.17;;
1402;SDS011;696;48.546;9.896;2023-04-25T14:43:16;2.67;;;2.10;;
1402;SDS011;696;48.546;9.896;2023-04-25T14:45:41;4.80;;;3.08;;
1402;SDS011;696;48.546;9.896;2023-04-25T14:48:07;3.70;;;2.63;;
1402;SDS011;696;48.546;9.896;2023-04-25T14:50:32;4.10;;;1.98;;
1402;SDS011;696;48.546;9.896;2023-04-25T14:52:58;5.40;;;2.75;;
1402;SDS011;696;48.546;9.896;2023-04-25T14:55:25;3.95;;;2.28;;
1402;SDS011;696;48.546;9.896;2023-04-25T14:57:52;4.00;;;2.80;;
1402;SDS011;696;48.546;9.896;2023-04-25T15:00:18;5.68;;;3.38;;
1402;SDS011;696;48.546;9.896;2023-04-25T15:02:45;5.05;;;3.17;;
1402;SDS011;696;48.546;9.896;2023-04-25T15:05:11;3.05;;;2.58;;
1402;SDS011;696;48.546;9.896;2023-04-25T15:07:37;3.92;;;3.05;;
1402;SDS011;696;48.546;9.896;2023-04-25T15:10:04;2.97;;;2.42;;
1402;SDS011;696;48.546;9.896;2023-04-25T15:12:31;7.25;;;3.05;;
1402;SDS011;696;48.546;9.896;2023-04-25T15:14:56;4.45;;;3.42;;
1402;SDS011;696;48.546;9.896;2023-04-25T15:17:22;10.07;;;2.90;;
1402;SDS011;696;48.546;9.896;2023-04-25T15:19:47;5.47;;;3.22;;
1402;SDS011;696;48.546;9.896;2023-04-25T15:22:12;5.07;;;2.95;;
1402;SDS011;696;48.546;9.896;2023-04-25T15:24:38;8.60;;;3.13;;
1402;SDS011;696;48.546;9.896;2023-04-25T15:27:03;5.20;;;3.10;;
1402;SDS011;696;48.546;9.896;2023-04-25T15:29:29;3.80;;;3.40;;
1402;SDS011;696;48.546;9.896;2023-04-25T15:31:55;5.75;;;3.60;;
1402;SDS011;696;48.546;9.896;2023-04-25T15:34:20;7.25;;;5.90;;
1402;SDS011;696;48.546;9.896;2023-04-25T15:36:46;6.00;;;4.28;;
1402;SDS011;696;48.546;9.896;2023-04-25T15:39:11;6.57;;;3.85;;
1402;SDS011;696;48.546;9.896;2023-04-25T15:41:36;15.40;;;3.83;;
1402;SDS011;696;48.546;9.896;2023-04-25T15:44:02;5.03;;;3.70;;